Etusivu
METAR-TAF:

METAR-TAF

Lentoasemat :

Odense, Tanska

Leveyspiiri: 55-29N, Pituuspiiri: 010-20E, korkeus merenpinnasta: 17 m

Tämänhetkinen sää

Tämä raportti tehtiin 11 tuntia ja 14 minuuttia sitten, kello 17.50 UTC
Tuuli 3 kn idästä
Lämpötila 18°C
Kosteus 52%
Ilmanpaine 1018 hPa
Näkyvyys 10 km tai enemmän
ei pilviä alle 1500 m:ssä eikä cumulonimbus-pilviä

METAR: EKOD 221750Z 10003KT CAVOK 18/08 Q1018

Aika: 07:04 (05:04 UTC)

Sääennuste

Tämä raportti tehtiin 17 tuntia ja 25 minuuttia sitten, kello 11.39 UTC
Ennuste voimassa 22. päivästä klo 12 UTC - 22. päivään klo 18 UTC
Tuuli 5 kn eri suunnista
Näkyvyys 10 km tai enemmän
Hajanaisia pilviä 4000 ft:n korkeudessa

TAF: EKOD 221139Z 2212/2218 VRB05KT 9999 SCT040

Säähavainnot ja -ennusteet yli 4000 lentoasemalta (METAR- ja TAF-raportit).

Käytössä olevat sääasemat on merkitty karttaan keltaisilla ja punaisilla pisteillä.

Aseta hiiri pisteen päälle nähdäksesi sääaseman nimen.

Klikkaa sitten nähdäksesi säähavainnot ja -ennusteet.

Kartan vaihtaminen: klikkaa mustalla rastilla varustettuja vihreitä pisteitä, niin voit zoomata sisään; viivalla varustettua vihreää pistettä, niin voit zoomata ulos tai vihreitä nuolia, niin pääset viereisille kartoille.


METAR-TAF: